sensor_id;sensor_type;location;lat;lon;timestamp;temperature;humidity
40538;DHT22;27925;41.874;12.526;2022-12-10T00:00:35;17.60;95.60
40538;DHT22;27925;41.874;12.526;2022-12-10T00:03:01;17.60;95.50
40538;DHT22;27925;41.874;12.526;2022-12-10T00:05:27;17.60;95.50
40538;DHT22;27925;41.874;12.526;2022-12-10T00:07:52;17.60;95.50
40538;DHT22;27925;41.874;12.526;2022-12-10T00:10:18;17.60;95.50
40538;DHT22;27925;41.874;12.526;2022-12-10T00:12:44;17.60;95.40
40538;DHT22;27925;41.874;12.526;2022-12-10T00:15:10;17.60;95.40
40538;DHT22;27925;41.874;12.526;2022-12-10T00:17:36;17.60;95.40
40538;DHT22;27925;41.874;12.526;2022-12-10T00:20:02;17.60;95.40
40538;DHT22;27925;41.874;12.526;2022-12-10T00:22:27;17.60;95.30
40538;DHT22;27925;41.874;12.526;2022-12-10T00:24:53;17.60;95.40
40538;DHT22;27925;41.874;12.526;2022-12-10T00:27:19;17.60;95.30
40538;DHT22;27925;41.874;12.526;2022-12-10T00:29:44;17.60;95.20
40538;DHT22;27925;41.874;12.526;2022-12-10T00:32:10;17.60;95.20
40538;DHT22;27925;41.874;12.526;2022-12-10T00:34:36;17.60;95.20
40538;DHT22;27925;41.874;12.526;2022-12-10T00:37:02;17.60;95.20
40538;DHT22;27925;41.874;12.526;2022-12-10T00:39:27;17.60;95.20
40538;DHT22;27925;41.874;12.526;2022-12-10T00:41:54;17.60;95.20
40538;DHT22;27925;41.874;12.526;2022-12-10T00:44:20;17.60;95.20
40538;DHT22;27925;41.874;12.526;2022-12-10T00:46:45;17.60;95.10
40538;DHT22;27925;41.874;12.526;2022-12-10T00:49:12;17.60;95.10
40538;DHT22;27925;41.874;12.526;2022-12-10T00:51:38;17.60;95.20
40538;DHT22;27925;41.874;12.526;2022-12-10T00:54:04;17.60;95.20
40538;DHT22;27925;41.874;12.526;2022-12-10T00:56:31;17.60;95.20
40538;DHT22;27925;41.874;12.526;2022-12-10T00:58:58;17.70;95.30
40538;DHT22;27925;41.874;12.526;2022-12-10T01:01:33;17.70;95.20
40538;DHT22;27925;41.874;12.526;2022-12-10T01:04:01;17.70;95.20
40538;DHT22;27925;41.874;12.526;2022-12-10T01:06:32;17.70;95.20
40538;DHT22;27925;41.874;12.526;2022-12-10T01:09:01;17.70;95.20
40538;DHT22;27925;41.874;12.526;2022-12-10T01:11:35;17.80;95.30
40538;DHT22;27925;41.874;12.526;2022-12-10T01:14:04;17.70;95.10
40538;DHT22;27925;41.874;12.526;2022-12-10T01:16:30;17.80;95.20
40538;DHT22;27925;41.874;12.526;2022-12-10T01:18:57;17.80;95.20
40538;DHT22;27925;41.874;12.526;2022-12-10T01:21:23;17.80;95.20
40538;DHT22;27925;41.874;12.526;2022-12-10T01:23:50;17.80;95.20
40538;DHT22;27925;41.874;12.526;2022-12-10T01:26:22;17.80;95.20
40538;DHT22;27925;41.874;12.526;2022-12-10T01:28:49;17.80;95.10
40538;DHT22;27925;41.874;12.526;2022-12-10T01:31:19;17.80;95.20
40538;DHT22;27925;41.874;12.526;2022-12-10T01:33:45;17.80;95.20
40538;DHT22;27925;41.874;12.526;2022-12-10T01:36:16;17.80;95.20
40538;DHT22;27925;41.874;12.526;2022-12-10T01:38:43;17.80;95.20
40538;DHT22;27925;41.874;12.526;2022-12-10T01:41:15;17.80;95.10
40538;DHT22;27925;41.874;12.526;2022-12-10T01:46:39;17.80;95.10
40538;DHT22;27925;41.874;12.526;2022-12-10T01:49:08;17.80;95.00
40538;DHT22;27925;41.874;12.526;2022-12-10T01:51:36;17.80;94.90
40538;DHT22;27925;41.874;12.526;2022-12-10T01:54:10;17.80;94.80
40538;DHT22;27925;41.874;12.526;2022-12-10T01:56:40;17.80;94.90
40538;DHT22;27925;41.874;12.526;2022-12-10T01:59:06;17.80;94.70
40538;DHT22;27925;41.874;12.526;2022-12-10T02:01:37;17.80;94.70
40538;DHT22;27925;41.874;12.526;2022-12-10T02:09:43;17.80;94.50
40538;DHT22;27925;41.874;12.526;2022-12-10T02:15:10;17.90;94.50
40538;DHT22;27925;41.874;12.526;2022-12-10T02:17:42;17.80;94.40
40538;DHT22;27925;41.874;12.526;2022-12-10T02:25:22;17.80;94.50
40538;DHT22;27925;41.874;12.526;2022-12-10T02:30:59;17.80;94.50
40538;DHT22;27925;41.874;12.526;2022-12-10T02:33:27;17.80;94.70
40538;DHT22;27925;41.874;12.526;2022-12-10T02:35:56;17.80;95.00
40538;DHT22;27925;41.874;12.526;2022-12-10T02:38:27;17.80;94.90
40538;DHT22;27925;41.874;12.526;2022-12-10T02:41:08;17.80;94.90
40538;DHT22;27925;41.874;12.526;2022-12-10T02:43:36;17.80;94.80
40538;DHT22;27925;41.874;12.526;2022-12-10T02:46:03;17.70;94.90
40538;DHT22;27925;41.874;12.526;2022-12-10T02:48:31;17.70;94.90
40538;DHT22;27925;41.874;12.526;2022-12-10T02:50:57;17.80;94.90
40538;DHT22;27925;41.874;12.526;2022-12-10T02:53:23;17.70;94.90
40538;DHT22;27925;41.874;12.526;2022-12-10T02:58:49;17.80;94.70
40538;DHT22;27925;41.874;12.526;2022-12-10T03:04:57;17.80;94.90
40538;DHT22;27925;41.874;12.526;2022-12-10T03:07:10;17.80;94.70
40538;DHT22;27925;41.874;12.526;2022-12-10T03:09:48;17.80;95.00
40538;DHT22;27925;41.874;12.526;2022-12-10T03:12:25;17.80;95.00
40538;DHT22;27925;41.874;12.526;2022-12-10T03:14:58;17.80;94.90
40538;DHT22;27925;41.874;12.526;2022-12-10T03:17:27;17.80;95.00
40538;DHT22;27925;41.874;12.526;2022-12-10T03:19:55;17.80;95.10
40538;DHT22;27925;41.874;12.526;2022-12-10T03:22:22;17.80;95.20
40538;DHT22;27925;41.874;12.526;2022-12-10T03:24:48;17.80;95.30
40538;DHT22;27925;41.874;12.526;2022-12-10T03:27:17;17.80;95.50
40538;DHT22;27925;41.874;12.526;2022-12-10T03:29:48;17.70;95.60
40538;DHT22;27925;41.874;12.526;2022-12-10T03:32:16;17.70;95.80
40538;DHT22;27925;41.874;12.526;2022-12-10T03:34:47;17.70;95.90
40538;DHT22;27925;41.874;12.526;2022-12-10T03:37:14;17.60;96.00
40538;DHT22;27925;41.874;12.526;2022-12-10T03:39:41;17.60;96.20
40538;DHT22;27925;41.874;12.526;2022-12-10T03:42:07;17.50;96.30
40538;DHT22;27925;41.874;12.526;2022-12-10T03:44:35;17.50;96.50
40538;DHT22;27925;41.874;12.526;2022-12-10T03:47:03;17.50;96.90
40538;DHT22;27925;41.874;12.526;2022-12-10T03:49:30;17.40;96.70
40538;DHT22;27925;41.874;12.526;2022-12-10T03:51:55;17.40;96.80
40538;DHT22;27925;41.874;12.526;2022-12-10T03:54:21;17.40;96.80
40538;DHT22;27925;41.874;12.526;2022-12-10T03:56:48;17.40;97.00
40538;DHT22;27925;41.874;12.526;2022-12-10T03:59:13;17.40;97.00
40538;DHT22;27925;41.874;12.526;2022-12-10T04:01:40;17.30;97.00
40538;DHT22;27925;41.874;12.526;2022-12-10T04:04:07;17.30;97.00
40538;DHT22;27925;41.874;12.526;2022-12-10T04:06:33;17.30;97.00
40538;DHT22;27925;41.874;12.526;2022-12-10T04:08:59;17.30;97.10
40538;DHT22;27925;41.874;12.526;2022-12-10T04:11:25;17.30;97.10
40538;DHT22;27925;41.874;12.526;2022-12-10T04:13:51;17.30;97.10
40538;DHT22;27925;41.874;12.526;2022-12-10T04:16:36;17.30;97.20
40538;DHT22;27925;41.874;12.526;2022-12-10T04:19:13;17.30;97.30
40538;DHT22;27925;41.874;12.526;2022-12-10T04:21:40;17.30;97.20
40538;DHT22;27925;41.874;12.526;2022-12-10T04:24:27;17.20;97.30
40538;DHT22;27925;41.874;12.526;2022-12-10T04:29:39;17.20;97.40
40538;DHT22;27925;41.874;12.526;2022-12-10T04:32:05;17.20;97.40
40538;DHT22;27925;41.874;12.526;2022-12-10T04:34:31;17.20;97.60
40538;DHT22;27925;41.874;12.526;2022-12-10T04:36:57;17.20;97.60
40538;DHT22;27925;41.874;12.526;2022-12-10T04:39:24;17.20;97.60
40538;DHT22;27925;41.874;12.526;2022-12-10T04:41:50;17.20;97.60
40538;DHT22;27925;41.874;12.526;2022-12-10T04:44:17;17.20;97.60
40538;DHT22;27925;41.874;12.526;2022-12-10T04:46:43;17.20;97.80
40538;DHT22;27925;41.874;12.526;2022-12-10T04:49:09;17.20;98.00
40538;DHT22;27925;41.874;12.526;2022-12-10T04:51:35;17.20;97.80
40538;DHT22;27925;41.874;12.526;2022-12-10T04:54:02;17.20;97.80
40538;DHT22;27925;41.874;12.526;2022-12-10T04:56:28;17.20;97.80
40538;DHT22;27925;41.874;12.526;2022-12-10T04:58:57;17.20;97.80
40538;DHT22;27925;41.874;12.526;2022-12-10T05:01:23;17.20;97.80
40538;DHT22;27925;41.874;12.526;2022-12-10T05:03:49;17.20;97.80
40538;DHT22;27925;41.874;12.526;2022-12-10T05:06:16;17.20;97.80
40538;DHT22;27925;41.874;12.526;2022-12-10T05:08:42;17.20;97.80
40538;DHT22;27925;41.874;12.526;2022-12-10T05:11:15;17.20;97.80
40538;DHT22;27925;41.874;12.526;2022-12-10T05:13:43;17.20;97.80
40538;DHT22;27925;41.874;12.526;2022-12-10T05:16:11;17.30;97.90
40538;DHT22;27925;41.874;12.526;2022-12-10T05:18:37;17.30;98.00
40538;DHT22;27925;41.874;12.526;2022-12-10T05:21:05;17.20;97.90
40538;DHT22;27925;41.874;12.526;2022-12-10T05:23:31;17.30;97.90
40538;DHT22;27925;41.874;12.526;2022-12-10T05:26:21;17.30;98.00
40538;DHT22;27925;41.874;12.526;2022-12-10T05:28:54;17.30;98.00
40538;DHT22;27925;41.874;12.526;2022-12-10T05:31:22;17.20;98.00
40538;DHT22;27925;41.874;12.526;2022-12-10T05:33:49;17.20;98.00
40538;DHT22;27925;41.874;12.526;2022-12-10T05:36:17;17.20;98.00
40538;DHT22;27925;41.874;12.526;2022-12-10T05:38:43;17.20;98.00
40538;DHT22;27925;41.874;12.526;2022-12-10T05:41:18;17.20;98.00
40538;DHT22;27925;41.874;12.526;2022-12-10T05:43:44;17.30;98.10
40538;DHT22;27925;41.874;12.526;2022-12-10T05:46:15;17.20;98.00
40538;DHT22;27925;41.874;12.526;2022-12-10T05:48:43;17.20;98.10
40538;DHT22;27925;41.874;12.526;2022-12-10T05:51:11;17.20;98.10
40538;DHT22;27925;41.874;12.526;2022-12-10T05:53:37;17.20;98.10
40538;DHT22;27925;41.874;12.526;2022-12-10T05:56:06;17.10;98.10
40538;DHT22;27925;41.874;12.526;2022-12-10T05:58:33;17.10;98.10
40538;DHT22;27925;41.874;12.526;2022-12-10T06:00:59;17.10;98.10
40538;DHT22;27925;41.874;12.526;2022-12-10T06:03:27;17.10;98.10
40538;DHT22;27925;41.874;12.526;2022-12-10T06:05:53;17.10;98.00
40538;DHT22;27925;41.874;12.526;2022-12-10T06:08:19;17.10;98.10
40538;DHT22;27925;41.874;12.526;2022-12-10T06:10:45;17.00;98.00
40538;DHT22;27925;41.874;12.526;2022-12-10T06:13:11;17.10;98.00
40538;DHT22;27925;41.874;12.526;2022-12-10T06:15:39;17.10;97.90
40538;DHT22;27925;41.874;12.526;2022-12-10T06:18:06;17.10;97.90
40538;DHT22;27925;41.874;12.526;2022-12-10T06:20:31;17.10;97.80
40538;DHT22;27925;41.874;12.526;2022-12-10T06:22:57;17.10;97.80
40538;DHT22;27925;41.874;12.526;2022-12-10T06:25:23;17.20;97.70
40538;DHT22;27925;41.874;12.526;2022-12-10T06:27:49;17.20;97.70
40538;DHT22;27925;41.874;12.526;2022-12-10T06:30:15;17.20;97.70
40538;DHT22;27925;41.874;12.526;2022-12-10T06:32:40;17.20;97.70
40538;DHT22;27925;41.874;12.526;2022-12-10T06:35:09;17.20;97.70
40538;DHT22;27925;41.874;12.526;2022-12-10T06:37:35;17.20;97.70
40538;DHT22;27925;41.874;12.526;2022-12-10T06:40:01;17.20;97.80
40538;DHT22;27925;41.874;12.526;2022-12-10T06:42:27;17.20;97.80
40538;DHT22;27925;41.874;12.526;2022-12-10T06:44:52;17.20;97.80
40538;DHT22;27925;41.874;12.526;2022-12-10T06:47:18;17.30;97.90
40538;DHT22;27925;41.874;12.526;2022-12-10T06:49:44;17.20;97.80
40538;DHT22;27925;41.874;12.526;2022-12-10T06:52:09;17.30;98.00
40538;DHT22;27925;41.874;12.526;2022-12-10T06:54:35;17.20;98.10
40538;DHT22;27925;41.874;12.526;2022-12-10T06:57:01;17.20;98.10
40538;DHT22;27925;41.874;12.526;2022-12-10T06:59:26;17.30;98.30
40538;DHT22;27925;41.874;12.526;2022-12-10T07:01:52;17.30;98.30
40538;DHT22;27925;41.874;12.526;2022-12-10T07:04:18;17.30;98.30
40538;DHT22;27925;41.874;12.526;2022-12-10T07:06:43;17.30;98.40
40538;DHT22;27925;41.874;12.526;2022-12-10T07:09:09;17.30;98.40
40538;DHT22;27925;41.874;12.526;2022-12-10T07:11:35;17.30;98.40
40538;DHT22;27925;41.874;12.526;2022-12-10T07:14:01;17.30;98.40
40538;DHT22;27925;41.874;12.526;2022-12-10T07:16:29;17.30;98.50
40538;DHT22;27925;41.874;12.526;2022-12-10T07:18:57;17.30;98.50
40538;DHT22;27925;41.874;12.526;2022-12-10T07:21:28;17.30;98.50
40538;DHT22;27925;41.874;12.526;2022-12-10T07:23:55;17.30;98.50
40538;DHT22;27925;41.874;12.526;2022-12-10T07:26:28;17.30;98.40
40538;DHT22;27925;41.874;12.526;2022-12-10T07:28:55;17.30;98.50
40538;DHT22;27925;41.874;12.526;2022-12-10T07:31:21;17.30;98.50
40538;DHT22;27925;41.874;12.526;2022-12-10T07:33:47;17.30;98.60
40538;DHT22;27925;41.874;12.526;2022-12-10T07:36:13;17.30;98.60
40538;DHT22;27925;41.874;12.526;2022-12-10T07:38:40;17.30;98.60
40538;DHT22;27925;41.874;12.526;2022-12-10T07:41:09;17.30;98.60
40538;DHT22;27925;41.874;12.526;2022-12-10T07:43:37;17.30;98.60
40538;DHT22;27925;41.874;12.526;2022-12-10T07:46:09;17.30;98.60
40538;DHT22;27925;41.874;12.526;2022-12-10T07:48:37;17.30;98.70
40538;DHT22;27925;41.874;12.526;2022-12-10T07:51:03;17.30;99.00
40538;DHT22;27925;41.874;12.526;2022-12-10T07:53:29;17.30;98.70
40538;DHT22;27925;41.874;12.526;2022-12-10T07:55:55;17.30;98.70
40538;DHT22;27925;41.874;12.526;2022-12-10T07:58:21;17.30;98.80
40538;DHT22;27925;41.874;12.526;2022-12-10T08:00:46;17.30;98.80
40538;DHT22;27925;41.874;12.526;2022-12-10T08:03:12;17.30;98.80
40538;DHT22;27925;41.874;12.526;2022-12-10T08:05:38;17.30;98.80
40538;DHT22;27925;41.874;12.526;2022-12-10T08:08:04;17.30;98.80
40538;DHT22;27925;41.874;12.526;2022-12-10T08:10:33;17.40;99.10
40538;DHT22;27925;41.874;12.526;2022-12-10T08:12:59;17.40;98.90
40538;DHT22;27925;41.874;12.526;2022-12-10T08:15:25;17.40;99.10
40538;DHT22;27925;41.874;12.526;2022-12-10T08:17:53;17.40;98.80
40538;DHT22;27925;41.874;12.526;2022-12-10T08:20:19;17.40;98.80
40538;DHT22;27925;41.874;12.526;2022-12-10T08:22:45;17.40;98.70
40538;DHT22;27925;41.874;12.526;2022-12-10T08:25:11;17.40;98.70
40538;DHT22;27925;41.874;12.526;2022-12-10T08:27:37;17.40;98.80
40538;DHT22;27925;41.874;12.526;2022-12-10T08:30:03;17.40;98.70
40538;DHT22;27925;41.874;12.526;2022-12-10T08:32:29;17.40;98.70
40538;DHT22;27925;41.874;12.526;2022-12-10T08:34:55;17.40;98.60
40538;DHT22;27925;41.874;12.526;2022-12-10T08:37:21;17.40;98.60
40538;DHT22;27925;41.874;12.526;2022-12-10T08:39:47;17.40;98.60
40538;DHT22;27925;41.874;12.526;2022-12-10T08:42:12;17.40;98.60
40538;DHT22;27925;41.874;12.526;2022-12-10T08:44:38;17.40;98.60
40538;DHT22;27925;41.874;12.526;2022-12-10T08:47:04;17.30;98.50
40538;DHT22;27925;41.874;12.526;2022-12-10T08:49:31;17.30;98.60
40538;DHT22;27925;41.874;12.526;2022-12-10T08:51:56;17.30;98.50
40538;DHT22;27925;41.874;12.526;2022-12-10T08:54:22;17.30;98.60
40538;DHT22;27925;41.874;12.526;2022-12-10T08:56:48;17.30;98.60
40538;DHT22;27925;41.874;12.526;2022-12-10T08:59:13;17.30;98.50
40538;DHT22;27925;41.874;12.526;2022-12-10T09:01:39;17.30;98.50
40538;DHT22;27925;41.874;12.526;2022-12-10T09:04:05;17.30;98.50
40538;DHT22;27925;41.874;12.526;2022-12-10T09:06:31;17.30;98.40
40538;DHT22;27925;41.874;12.526;2022-12-10T09:08:56;17.30;98.40
40538;DHT22;27925;41.874;12.526;2022-12-10T09:11:23;17.30;98.40
40538;DHT22;27925;41.874;12.526;2022-12-10T09:13:50;17.30;98.50
40538;DHT22;27925;41.874;12.526;2022-12-10T09:16:16;17.30;98.40
40538;DHT22;27925;41.874;12.526;2022-12-10T09:18:41;17.30;98.40
40538;DHT22;27925;41.874;12.526;2022-12-10T09:21:09;17.30;98.40
40538;DHT22;27925;41.874;12.526;2022-12-10T09:23:35;17.40;98.40
40538;DHT22;27925;41.874;12.526;2022-12-10T09:26:04;17.40;98.30
40538;DHT22;27925;41.874;12.526;2022-12-10T09:28:30;17.40;98.40
40538;DHT22;27925;41.874;12.526;2022-12-10T09:30:58;17.40;98.30
40538;DHT22;27925;41.874;12.526;2022-12-10T09:33:26;17.40;98.50
40538;DHT22;27925;41.874;12.526;2022-12-10T09:35:52;17.50;98.30
40538;DHT22;27925;41.874;12.526;2022-12-10T09:38:18;17.50;98.30
40538;DHT22;27925;41.874;12.526;2022-12-10T09:40:56;17.40;98.30
40538;DHT22;27925;41.874;12.526;2022-12-10T09:46:30;17.60;98.30
40538;DHT22;27925;41.874;12.526;2022-12-10T09:51:55;17.60;98.20
40538;DHT22;27925;41.874;12.526;2022-12-10T09:54:28;17.70;98.10
40538;DHT22;27925;41.874;12.526;2022-12-10T09:56:55;17.80;98.00
40538;DHT22;27925;41.874;12.526;2022-12-10T09:59:39;17.80;97.80
40538;DHT22;27925;41.874;12.526;2022-12-10T10:02:25;17.90;97.90
40538;DHT22;27925;41.874;12.526;2022-12-10T10:05:06;17.90;97.70
40538;DHT22;27925;41.874;12.526;2022-12-10T10:07:47;18.00;97.70
40538;DHT22;27925;41.874;12.526;2022-12-10T10:10:34;18.00;97.50
40538;DHT22;27925;41.874;12.526;2022-12-10T10:15:55;18.00;97.40
40538;DHT22;27925;41.874;12.526;2022-12-10T10:18:33;17.90;97.40
40538;DHT22;27925;41.874;12.526;2022-12-10T10:21:00;18.00;97.30
40538;DHT22;27925;41.874;12.526;2022-12-10T10:23:26;18.00;97.30
40538;DHT22;27925;41.874;12.526;2022-12-10T10:25:51;18.10;97.20
40538;DHT22;27925;41.874;12.526;2022-12-10T10:28:21;18.10;97.10
40538;DHT22;27925;41.874;12.526;2022-12-10T10:30:47;18.10;97.00
40538;DHT22;27925;41.874;12.526;2022-12-10T10:33:15;18.20;97.00
40538;DHT22;27925;41.874;12.526;2022-12-10T10:35:52;18.20;97.00
40538;DHT22;27925;41.874;12.526;2022-12-10T10:38:24;18.20;96.90
40538;DHT22;27925;41.874;12.526;2022-12-10T10:40:59;18.20;96.80
40538;DHT22;27925;41.874;12.526;2022-12-10T10:43:42;18.20;96.70
40538;DHT22;27925;41.874;12.526;2022-12-10T10:46:16;18.30;96.60
40538;DHT22;27925;41.874;12.526;2022-12-10T10:48:43;18.40;96.50
40538;DHT22;27925;41.874;12.526;2022-12-10T10:53:45;18.50;96.10
40538;DHT22;27925;41.874;12.526;2022-12-10T10:56:15;18.60;96.00
40538;DHT22;27925;41.874;12.526;2022-12-10T10:58:56;18.70;95.70
40538;DHT22;27925;41.874;12.526;2022-12-10T11:01:25;18.80;95.60
40538;DHT22;27925;41.874;12.526;2022-12-10T11:03:58;19.00;95.50
40538;DHT22;27925;41.874;12.526;2022-12-10T11:06:25;19.10;95.40
40538;DHT22;27925;41.874;12.526;2022-12-10T11:08:54;19.30;95.10
40538;DHT22;27925;41.874;12.526;2022-12-10T11:11:40;19.30;94.90
40538;DHT22;27925;41.874;12.526;2022-12-10T11:14:38;19.40;94.80
40538;DHT22;27925;41.874;12.526;2022-12-10T11:19:42;19.40;94.70
40538;DHT22;27925;41.874;12.526;2022-12-10T11:22:17;19.30;94.70
40538;DHT22;27925;41.874;12.526;2022-12-10T11:24:43;19.30;94.70
40538;DHT22;27925;41.874;12.526;2022-12-10T11:27:13;19.30;94.70
40538;DHT22;27925;41.874;12.526;2022-12-10T11:30:04;19.20;94.80
40538;DHT22;27925;41.874;12.526;2022-12-10T11:38:24;19.00;94.70
40538;DHT22;27925;41.874;12.526;2022-12-10T11:49:42;18.60;94.90
40538;DHT22;27925;41.874;12.526;2022-12-10T12:00:26;18.80;94.60
40538;DHT22;27925;41.874;12.526;2022-12-10T12:09:09;18.60;94.50
40538;DHT22;27925;41.874;12.526;2022-12-10T12:14:23;18.50;94.70
40538;DHT22;27925;41.874;12.526;2022-12-10T12:17:15;18.50;94.60
40538;DHT22;27925;41.874;12.526;2022-12-10T12:19:52;18.50;94.60
40538;DHT22;27925;41.874;12.526;2022-12-10T12:22:31;18.70;94.60
40538;DHT22;27925;41.874;12.526;2022-12-10T12:25:06;18.70;94.40
40538;DHT22;27925;41.874;12.526;2022-12-10T12:27:43;18.70;94.60
40538;DHT22;27925;41.874;12.526;2022-12-10T12:30:19;18.60;94.70
40538;DHT22;27925;41.874;12.526;2022-12-10T12:33:12;18.50;94.70
40538;DHT22;27925;41.874;12.526;2022-12-10T12:35:49;18.50;94.70
40538;DHT22;27925;41.874;12.526;2022-12-10T12:38:31;18.40;94.70
40538;DHT22;27925;41.874;12.526;2022-12-10T12:41:26;18.10;94.80
40538;DHT22;27925;41.874;12.526;2022-12-10T12:46:42;17.40;95.10
40538;DHT22;27925;41.874;12.526;2022-12-10T12:49:24;17.20;95.40
40538;DHT22;27925;41.874;12.526;2022-12-10T12:54:22;17.00;95.70
40538;DHT22;27925;41.874;12.526;2022-12-10T13:02:55;17.20;95.80
40538;DHT22;27925;41.874;12.526;2022-12-10T13:11:14;17.30;95.20
40538;DHT22;27925;41.874;12.526;2022-12-10T13:42:35;17.50;95.40
40538;DHT22;27925;41.874;12.526;2022-12-10T13:47:49;17.50;95.60
40538;DHT22;27925;41.874;12.526;2022-12-10T13:50:39;17.50;95.60
40538;DHT22;27925;41.874;12.526;2022-12-10T13:59:08;17.50;95.60
40538;DHT22;27925;41.874;12.526;2022-12-10T14:01:59;17.60;95.70
40538;DHT22;27925;41.874;12.526;2022-12-10T14:06:58;17.80;95.50
40538;DHT22;27925;41.874;12.526;2022-12-10T14:09:29;17.80;95.50
40538;DHT22;27925;41.874;12.526;2022-12-10T14:12:07;17.80;95.60
40538;DHT22;27925;41.874;12.526;2022-12-10T14:14:39;17.70;95.70
40538;DHT22;27925;41.874;12.526;2022-12-10T14:17:17;17.70;95.80
40538;DHT22;27925;41.874;12.526;2022-12-10T14:19:46;17.70;95.90
40538;DHT22;27925;41.874;12.526;2022-12-10T14:23:02;17.60;96.00
40538;DHT22;27925;41.874;12.526;2022-12-10T14:25:22;17.60;96.00
40538;DHT22;27925;41.874;12.526;2022-12-10T14:27:52;17.60;96.20
40538;DHT22;27925;41.874;12.526;2022-12-10T14:30:21;17.60;96.10
40538;DHT22;27925;41.874;12.526;2022-12-10T14:32:49;17.50;96.20
40538;DHT22;27925;41.874;12.526;2022-12-10T14:35:23;17.40;96.20
40538;DHT22;27925;41.874;12.526;2022-12-10T14:37:51;17.40;96.30
40538;DHT22;27925;41.874;12.526;2022-12-10T14:40:23;17.40;96.40
40538;DHT22;27925;41.874;12.526;2022-12-10T14:43:02;17.40;96.60
40538;DHT22;27925;41.874;12.526;2022-12-10T14:45:38;17.40;96.50
40538;DHT22;27925;41.874;12.526;2022-12-10T14:48:05;17.40;96.60
40538;DHT22;27925;41.874;12.526;2022-12-10T14:50:34;17.40;96.60
40538;DHT22;27925;41.874;12.526;2022-12-10T14:53:00;17.30;96.60
40538;DHT22;27925;41.874;12.526;2022-12-10T14:55:27;17.30;96.70
40538;DHT22;27925;41.874;12.526;2022-12-10T14:58:00;17.30;97.00
40538;DHT22;27925;41.874;12.526;2022-12-10T15:00:27;17.30;96.80
40538;DHT22;27925;41.874;12.526;2022-12-10T15:02:59;17.20;96.70
40538;DHT22;27925;41.874;12.526;2022-12-10T15:05:35;17.20;96.80
40538;DHT22;27925;41.874;12.526;2022-12-10T15:08:07;17.20;96.70
40538;DHT22;27925;41.874;12.526;2022-12-10T15:10:50;17.20;96.80
40538;DHT22;27925;41.874;12.526;2022-12-10T15:13:33;17.10;96.70
40538;DHT22;27925;41.874;12.526;2022-12-10T15:16:01;17.10;96.60
40538;DHT22;27925;41.874;12.526;2022-12-10T15:18:37;17.10;96.60
40538;DHT22;27925;41.874;12.526;2022-12-10T15:21:16;17.00;96.40
40538;DHT22;27925;41.874;12.526;2022-12-10T15:23:44;17.00;96.40
40538;DHT22;27925;41.874;12.526;2022-12-10T15:28:46;17.00;96.40
40538;DHT22;27925;41.874;12.526;2022-12-10T15:33:54;16.90;96.50
40538;DHT22;27925;41.874;12.526;2022-12-10T15:44:27;16.90;96.40
40538;DHT22;27925;41.874;12.526;2022-12-10T15:47:15;16.90;96.30
40538;DHT22;27925;41.874;12.526;2022-12-10T15:49:42;16.90;96.40
40538;DHT22;27925;41.874;12.526;2022-12-10T15:52:16;16.80;96.30
40538;DHT22;27925;41.874;12.526;2022-12-10T15:54:44;16.80;96.20
40538;DHT22;27925;41.874;12.526;2022-12-10T15:59:44;16.80;96.30
40538;DHT22;27925;41.874;12.526;2022-12-10T16:04:56;16.70;96.20
40538;DHT22;27925;41.874;12.526;2022-12-10T16:07:22;16.50;96.20
40538;DHT22;27925;41.874;12.526;2022-12-10T16:09:48;16.40;96.30
40538;DHT22;27925;41.874;12.526;2022-12-10T16:12:15;16.30;96.20
40538;DHT22;27925;41.874;12.526;2022-12-10T16:14:49;16.30;96.20
40538;DHT22;27925;41.874;12.526;2022-12-10T16:17:16;16.20;96.40
40538;DHT22;27925;41.874;12.526;2022-12-10T16:19:42;16.20;96.40
40538;DHT22;27925;41.874;12.526;2022-12-10T16:22:09;16.20;96.50
40538;DHT22;27925;41.874;12.526;2022-12-10T16:24:34;16.20;96.40
40538;DHT22;27925;41.874;12.526;2022-12-10T16:27:00;16.20;96.50
40538;DHT22;27925;41.874;12.526;2022-12-10T16:29:26;16.20;96.60
40538;DHT22;27925;41.874;12.526;2022-12-10T16:31:52;16.20;96.70
40538;DHT22;27925;41.874;12.526;2022-12-10T16:34:17;16.20;96.70
40538;DHT22;27925;41.874;12.526;2022-12-10T16:36:43;16.20;96.70
40538;DHT22;27925;41.874;12.526;2022-12-10T16:39:09;16.20;96.80
40538;DHT22;27925;41.874;12.526;2022-12-10T16:41:35;16.10;96.60
40538;DHT22;27925;41.874;12.526;2022-12-10T16:44:01;16.10;96.60
40538;DHT22;27925;41.874;12.526;2022-12-10T16:46:26;16.10;96.60
40538;DHT22;27925;41.874;12.526;2022-12-10T16:48:52;16.00;96.50
40538;DHT22;27925;41.874;12.526;2022-12-10T16:51:26;16.00;96.50
40538;DHT22;27925;41.874;12.526;2022-12-10T16:53:55;16.00;96.70
40538;DHT22;27925;41.874;12.526;2022-12-10T16:56:21;15.90;96.30
40538;DHT22;27925;41.874;12.526;2022-12-10T16:58:47;15.90;96.40
40538;DHT22;27925;41.874;12.526;2022-12-10T17:01:31;15.90;96.30
40538;DHT22;27925;41.874;12.526;2022-12-10T17:03:57;15.90;96.40
40538;DHT22;27925;41.874;12.526;2022-12-10T17:06:24;15.80;96.30
40538;DHT22;27925;41.874;12.526;2022-12-10T17:08:50;15.80;96.20
40538;DHT22;27925;41.874;12.526;2022-12-10T17:11:25;15.80;96.20
40538;DHT22;27925;41.874;12.526;2022-12-10T17:14:26;15.80;96.20
40538;DHT22;27925;41.874;12.526;2022-12-10T17:16:54;15.80;96.20
40538;DHT22;27925;41.874;12.526;2022-12-10T17:19:21;15.80;96.10
40538;DHT22;27925;41.874;12.526;2022-12-10T17:21:46;15.80;96.00
40538;DHT22;27925;41.874;12.526;2022-12-10T17:24:12;15.70;96.00
40538;DHT22;27925;41.874;12.526;2022-12-10T17:26:46;15.80;96.10
40538;DHT22;27925;41.874;12.526;2022-12-10T17:29:28;15.70;96.10
40538;DHT22;27925;41.874;12.526;2022-12-10T17:31:54;15.80;96.00
40538;DHT22;27925;41.874;12.526;2022-12-10T17:34:20;15.80;96.10
40538;DHT22;27925;41.874;12.526;2022-12-10T17:36:49;15.80;96.00
40538;DHT22;27925;41.874;12.526;2022-12-10T17:39:17;15.80;95.90
40538;DHT22;27925;41.874;12.526;2022-12-10T17:41:43;15.90;96.00
40538;DHT22;27925;41.874;12.526;2022-12-10T17:44:09;15.80;96.00
40538;DHT22;27925;41.874;12.526;2022-12-10T17:46:35;15.80;95.80
40538;DHT22;27925;41.874;12.526;2022-12-10T17:49:00;15.80;95.90
40538;DHT22;27925;41.874;12.526;2022-12-10T17:51:27;15.80;96.00
40538;DHT22;27925;41.874;12.526;2022-12-10T17:53:53;15.80;96.00
40538;DHT22;27925;41.874;12.526;2022-12-10T17:56:25;15.70;95.90
40538;DHT22;27925;41.874;12.526;2022-12-10T17:58:54;15.80;96.00